sensor_id;sensor_type;location;lat;lon;timestamp;P1;durP1;ratioP1;P2;durP2;ratioP2
11709;SDS011;5911;51.036;6.972;2022-10-26T00:01:19;4.03;;;1.90;;
11709;SDS011;5911;51.036;6.972;2022-10-26T00:03:47;3.30;;;2.00;;
11709;SDS011;5911;51.036;6.972;2022-10-26T00:06:15;5.25;;;2.13;;
11709;SDS011;5911;51.036;6.972;2022-10-26T00:08:46;7.18;;;2.17;;
11709;SDS011;5911;51.036;6.972;2022-10-26T00:11:15;3.97;;;1.90;;
11709;SDS011;5911;51.036;6.972;2022-10-26T00:13:44;5.40;;;2.00;;
11709;SDS011;5911;51.036;6.972;2022-10-26T00:16:13;2.83;;;1.80;;
11709;SDS011;5911;51.036;6.972;2022-10-26T00:18:42;6.57;;;1.98;;
11709;SDS011;5911;51.036;6.972;2022-10-26T00:21:10;4.03;;;1.43;;
11709;SDS011;5911;51.036;6.972;2022-10-26T00:23:38;5.00;;;1.73;;
11709;SDS011;5911;51.036;6.972;2022-10-26T00:26:08;4.20;;;1.40;;
11709;SDS011;5911;51.036;6.972;2022-10-26T00:28:36;4.17;;;1.80;;
11709;SDS011;5911;51.036;6.972;2022-10-26T00:31:05;4.50;;;1.77;;
11709;SDS011;5911;51.036;6.972;2022-10-26T00:33:35;2.80;;;2.00;;
11709;SDS011;5911;51.036;6.972;2022-10-26T00:36:03;4.50;;;2.03;;
11709;SDS011;5911;51.036;6.972;2022-10-26T00:38:31;5.00;;;1.73;;
11709;SDS011;5911;51.036;6.972;2022-10-26T00:40:59;8.95;;;2.22;;
11709;SDS011;5911;51.036;6.972;2022-10-26T00:43:35;2.17;;;1.30;;
11709;SDS011;5911;51.036;6.972;2022-10-26T00:46:10;4.10;;;1.52;;
11709;SDS011;5911;51.036;6.972;2022-10-26T00:48:42;2.90;;;1.70;;
11709;SDS011;5911;51.036;6.972;2022-10-26T00:51:14;3.60;;;1.47;;
11709;SDS011;5911;51.036;6.972;2022-10-26T00:53:49;6.10;;;1.93;;
11709;SDS011;5911;51.036;6.972;2022-10-26T00:56:17;3.97;;;1.67;;
11709;SDS011;5911;51.036;6.972;2022-10-26T00:58:47;4.47;;;1.47;;
11709;SDS011;5911;51.036;6.972;2022-10-26T01:01:14;2.07;;;1.67;;
11709;SDS011;5911;51.036;6.972;2022-10-26T01:03:42;3.50;;;1.50;;
11709;SDS011;5911;51.036;6.972;2022-10-26T01:06:12;3.10;;;1.47;;
11709;SDS011;5911;51.036;6.972;2022-10-26T01:08:41;3.77;;;1.50;;
11709;SDS011;5911;51.036;6.972;2022-10-26T01:11:10;5.35;;;1.77;;
11709;SDS011;5911;51.036;6.972;2022-10-26T01:13:38;6.30;;;1.90;;
11709;SDS011;5911;51.036;6.972;2022-10-26T01:16:19;2.97;;;1.67;;
11709;SDS011;5911;51.036;6.972;2022-10-26T01:19:00;3.00;;;1.70;;
11709;SDS011;5911;51.036;6.972;2022-10-26T01:21:47;4.97;;;2.03;;
11709;SDS011;5911;51.036;6.972;2022-10-26T01:24:26;5.87;;;1.60;;
11709;SDS011;5911;51.036;6.972;2022-10-26T01:27:11;5.20;;;1.40;;
11709;SDS011;5911;51.036;6.972;2022-10-26T01:29:50;4.10;;;1.70;;
11709;SDS011;5911;51.036;6.972;2022-10-26T01:32:56;2.55;;;1.60;;
11709;SDS011;5911;51.036;6.972;2022-10-26T01:35:37;3.67;;;2.00;;
11709;SDS011;5911;51.036;6.972;2022-10-26T01:38:10;5.90;;;1.80;;
11709;SDS011;5911;51.036;6.972;2022-10-26T01:40:45;4.55;;;1.70;;
11709;SDS011;5911;51.036;6.972;2022-10-26T01:43:18;3.97;;;1.63;;
11709;SDS011;5911;51.036;6.972;2022-10-26T01:45:47;4.70;;;1.70;;
11709;SDS011;5911;51.036;6.972;2022-10-26T01:48:18;3.92;;;1.50;;
11709;SDS011;5911;51.036;6.972;2022-10-26T01:50:51;4.55;;;1.40;;
11709;SDS011;5911;51.036;6.972;2022-10-26T01:53:20;3.40;;;1.70;;
11709;SDS011;5911;51.036;6.972;2022-10-26T01:55:49;3.80;;;1.30;;
11709;SDS011;5911;51.036;6.972;2022-10-26T02:01:32;3.15;;;1.60;;
11709;SDS011;5911;51.036;6.972;2022-10-26T02:04:15;2.97;;;1.80;;
11709;SDS011;5911;51.036;6.972;2022-10-26T02:06:57;6.25;;;1.73;;
11709;SDS011;5911;51.036;6.972;2022-10-26T02:09:33;3.77;;;1.90;;
11709;SDS011;5911;51.036;6.972;2022-10-26T02:12:11;4.43;;;1.63;;
11709;SDS011;5911;51.036;6.972;2022-10-26T02:14:48;5.35;;;1.67;;
11709;SDS011;5911;51.036;6.972;2022-10-26T02:17:20;3.70;;;1.70;;
11709;SDS011;5911;51.036;6.972;2022-10-26T02:19:55;5.38;;;1.80;;
11709;SDS011;5911;51.036;6.972;2022-10-26T02:22:30;7.15;;;1.70;;
11709;SDS011;5911;51.036;6.972;2022-10-26T02:25:03;4.10;;;1.38;;
11709;SDS011;5911;51.036;6.972;2022-10-26T02:27:38;3.10;;;1.70;;
11709;SDS011;5911;51.036;6.972;2022-10-26T02:30:10;3.80;;;1.50;;
11709;SDS011;5911;51.036;6.972;2022-10-26T02:32:39;3.08;;;1.67;;
11709;SDS011;5911;51.036;6.972;2022-10-26T02:35:16;3.00;;;1.65;;
11709;SDS011;5911;51.036;6.972;2022-10-26T02:37:47;3.38;;;1.73;;
11709;SDS011;5911;51.036;6.972;2022-10-26T02:40:19;5.80;;;1.80;;
11709;SDS011;5911;51.036;6.972;2022-10-26T02:42:51;4.27;;;1.50;;
11709;SDS011;5911;51.036;6.972;2022-10-26T02:45:22;7.67;;;1.60;;
11709;SDS011;5911;51.036;6.972;2022-10-26T02:47:53;5.10;;;1.70;;
11709;SDS011;5911;51.036;6.972;2022-10-26T02:50:25;5.57;;;1.50;;
11709;SDS011;5911;51.036;6.972;2022-10-26T02:53:00;3.60;;;1.97;;
11709;SDS011;5911;51.036;6.972;2022-10-26T02:55:37;4.63;;;1.80;;
11709;SDS011;5911;51.036;6.972;2022-10-26T02:58:12;5.70;;;1.70;;
11709;SDS011;5911;51.036;6.972;2022-10-26T03:00:45;3.72;;;1.67;;
11709;SDS011;5911;51.036;6.972;2022-10-26T03:03:13;2.87;;;1.40;;
11709;SDS011;5911;51.036;6.972;2022-10-26T03:05:43;3.22;;;1.70;;
11709;SDS011;5911;51.036;6.972;2022-10-26T03:08:10;4.78;;;1.85;;
11709;SDS011;5911;51.036;6.972;2022-10-26T03:10:39;2.65;;;1.55;;
11709;SDS011;5911;51.036;6.972;2022-10-26T03:13:09;4.40;;;2.03;;
11709;SDS011;5911;51.036;6.972;2022-10-26T03:15:38;4.07;;;1.53;;
11709;SDS011;5911;51.036;6.972;2022-10-26T03:18:06;3.10;;;1.55;;
11709;SDS011;5911;51.036;6.972;2022-10-26T03:20:34;5.00;;;2.17;;
11709;SDS011;5911;51.036;6.972;2022-10-26T03:23:03;2.13;;;1.52;;
11709;SDS011;5911;51.036;6.972;2022-10-26T03:25:31;4.05;;;1.50;;
11709;SDS011;5911;51.036;6.972;2022-10-26T03:27:59;4.17;;;1.60;;
11709;SDS011;5911;51.036;6.972;2022-10-26T03:30:28;2.33;;;1.33;;
11709;SDS011;5911;51.036;6.972;2022-10-26T03:32:57;3.03;;;1.40;;
11709;SDS011;5911;51.036;6.972;2022-10-26T03:35:25;4.00;;;1.63;;
11709;SDS011;5911;51.036;6.972;2022-10-26T03:37:53;2.50;;;1.60;;
11709;SDS011;5911;51.036;6.972;2022-10-26T03:40:22;4.83;;;2.07;;
11709;SDS011;5911;51.036;6.972;2022-10-26T03:42:50;4.77;;;1.80;;
11709;SDS011;5911;51.036;6.972;2022-10-26T03:45:18;4.50;;;1.90;;
11709;SDS011;5911;51.036;6.972;2022-10-26T03:47:46;9.43;;;2.17;;
11709;SDS011;5911;51.036;6.972;2022-10-26T03:50:17;5.87;;;1.70;;
11709;SDS011;5911;51.036;6.972;2022-10-26T03:52:47;4.33;;;1.90;;
11709;SDS011;5911;51.036;6.972;2022-10-26T03:55:15;4.65;;;1.92;;
11709;SDS011;5911;51.036;6.972;2022-10-26T03:57:46;3.47;;;1.60;;
11709;SDS011;5911;51.036;6.972;2022-10-26T04:00:14;3.20;;;1.90;;
11709;SDS011;5911;51.036;6.972;2022-10-26T04:02:43;4.57;;;2.00;;
11709;SDS011;5911;51.036;6.972;2022-10-26T04:05:14;2.70;;;1.77;;
11709;SDS011;5911;51.036;6.972;2022-10-26T04:07:42;6.07;;;1.97;;
11709;SDS011;5911;51.036;6.972;2022-10-26T04:10:10;3.17;;;1.80;;
11709;SDS011;5911;51.036;6.972;2022-10-26T04:12:37;6.43;;;2.10;;
11709;SDS011;5911;51.036;6.972;2022-10-26T04:15:07;3.40;;;1.70;;
11709;SDS011;5911;51.036;6.972;2022-10-26T04:17:35;3.05;;;1.58;;
11709;SDS011;5911;51.036;6.972;2022-10-26T04:20:23;4.37;;;2.10;;
11709;SDS011;5911;51.036;6.972;2022-10-26T04:22:57;7.20;;;2.20;;
11709;SDS011;5911;51.036;6.972;2022-10-26T04:25:29;4.88;;;2.20;;
11709;SDS011;5911;51.036;6.972;2022-10-26T04:27:59;6.53;;;2.20;;
11709;SDS011;5911;51.036;6.972;2022-10-26T04:30:28;7.00;;;2.78;;
11709;SDS011;5911;51.036;6.972;2022-10-26T04:32:56;4.43;;;2.00;;
11709;SDS011;5911;51.036;6.972;2022-10-26T04:35:24;5.43;;;2.10;;
11709;SDS011;5911;51.036;6.972;2022-10-26T04:37:55;5.60;;;2.30;;
11709;SDS011;5911;51.036;6.972;2022-10-26T04:40:24;4.73;;;2.43;;
11709;SDS011;5911;51.036;6.972;2022-10-26T04:42:52;8.93;;;2.60;;
11709;SDS011;5911;51.036;6.972;2022-10-26T04:45:19;4.77;;;2.63;;
11709;SDS011;5911;51.036;6.972;2022-10-26T04:47:58;5.93;;;2.47;;
11709;SDS011;5911;51.036;6.972;2022-10-26T04:50:27;5.93;;;2.30;;
11709;SDS011;5911;51.036;6.972;2022-10-26T04:52:55;3.78;;;2.05;;
11709;SDS011;5911;51.036;6.972;2022-10-26T04:55:22;7.03;;;2.40;;
11709;SDS011;5911;51.036;6.972;2022-10-26T04:57:51;6.20;;;2.25;;
11709;SDS011;5911;51.036;6.972;2022-10-26T05:00:25;5.72;;;2.20;;
11709;SDS011;5911;51.036;6.972;2022-10-26T05:02:59;12.40;;;2.58;;
11709;SDS011;5911;51.036;6.972;2022-10-26T05:05:27;6.53;;;2.33;;
11709;SDS011;5911;51.036;6.972;2022-10-26T05:07:57;9.47;;;2.57;;
11709;SDS011;5911;51.036;6.972;2022-10-26T05:10:25;8.50;;;2.58;;
11709;SDS011;5911;51.036;6.972;2022-10-26T05:12:53;4.35;;;1.75;;
11709;SDS011;5911;51.036;6.972;2022-10-26T05:15:22;3.92;;;1.73;;
11709;SDS011;5911;51.036;6.972;2022-10-26T05:17:53;4.85;;;2.22;;
11709;SDS011;5911;51.036;6.972;2022-10-26T05:20:24;4.43;;;2.15;;
11709;SDS011;5911;51.036;6.972;2022-10-26T05:22:55;7.13;;;2.22;;
11709;SDS011;5911;51.036;6.972;2022-10-26T05:25:24;4.38;;;2.00;;
11709;SDS011;5911;51.036;6.972;2022-10-26T05:27:55;6.67;;;3.70;;
11709;SDS011;5911;51.036;6.972;2022-10-26T05:30:24;5.68;;;2.47;;
11709;SDS011;5911;51.036;6.972;2022-10-26T05:32:52;4.18;;;2.10;;
11709;SDS011;5911;51.036;6.972;2022-10-26T05:35:20;5.88;;;1.90;;
11709;SDS011;5911;51.036;6.972;2022-10-26T05:37:49;3.10;;;1.90;;
11709;SDS011;5911;51.036;6.972;2022-10-26T05:40:17;7.28;;;2.13;;
11709;SDS011;5911;51.036;6.972;2022-10-26T05:42:45;5.37;;;1.90;;
11709;SDS011;5911;51.036;6.972;2022-10-26T05:45:13;8.63;;;2.23;;
11709;SDS011;5911;51.036;6.972;2022-10-26T05:47:43;3.55;;;2.20;;
11709;SDS011;5911;51.036;6.972;2022-10-26T05:50:12;4.67;;;1.83;;
11709;SDS011;5911;51.036;6.972;2022-10-26T05:52:40;3.92;;;1.77;;
11709;SDS011;5911;51.036;6.972;2022-10-26T05:55:10;4.72;;;2.10;;
11709;SDS011;5911;51.036;6.972;2022-10-26T05:57:40;6.57;;;3.00;;
11709;SDS011;5911;51.036;6.972;2022-10-26T06:00:11;4.10;;;2.13;;
11709;SDS011;5911;51.036;6.972;2022-10-26T06:02:46;8.15;;;2.47;;
11709;SDS011;5911;51.036;6.972;2022-10-26T06:05:25;4.93;;;2.25;;
11709;SDS011;5911;51.036;6.972;2022-10-26T06:07:54;3.73;;;1.97;;
11709;SDS011;5911;51.036;6.972;2022-10-26T06:10:24;4.10;;;2.23;;
11709;SDS011;5911;51.036;6.972;2022-10-26T06:12:53;4.93;;;2.58;;
11709;SDS011;5911;51.036;6.972;2022-10-26T06:15:22;5.43;;;3.23;;
11709;SDS011;5911;51.036;6.972;2022-10-26T06:17:54;4.73;;;2.90;;
11709;SDS011;5911;51.036;6.972;2022-10-26T06:20:32;5.13;;;2.92;;
11709;SDS011;5911;51.036;6.972;2022-10-26T06:23:17;3.37;;;2.27;;
11709;SDS011;5911;51.036;6.972;2022-10-26T06:26:02;4.83;;;2.47;;
11709;SDS011;5911;51.036;6.972;2022-10-26T06:28:36;4.70;;;2.50;;
11709;SDS011;5911;51.036;6.972;2022-10-26T06:31:16;4.22;;;2.42;;
11709;SDS011;5911;51.036;6.972;2022-10-26T06:33:44;4.35;;;2.55;;
11709;SDS011;5911;51.036;6.972;2022-10-26T06:36:15;7.35;;;2.47;;
11709;SDS011;5911;51.036;6.972;2022-10-26T06:38:49;3.25;;;1.95;;
11709;SDS011;5911;51.036;6.972;2022-10-26T06:41:22;4.63;;;2.40;;
11709;SDS011;5911;51.036;6.972;2022-10-26T06:43:50;3.67;;;1.80;;
11709;SDS011;5911;51.036;6.972;2022-10-26T06:46:22;4.27;;;2.33;;
11709;SDS011;5911;51.036;6.972;2022-10-26T06:49:01;5.85;;;2.15;;
11709;SDS011;5911;51.036;6.972;2022-10-26T06:51:48;5.67;;;2.53;;
11709;SDS011;5911;51.036;6.972;2022-10-26T06:54:24;3.88;;;2.55;;
11709;SDS011;5911;51.036;6.972;2022-10-26T06:56:58;4.32;;;2.25;;
11709;SDS011;5911;51.036;6.972;2022-10-26T06:59:31;5.50;;;2.42;;
11709;SDS011;5911;51.036;6.972;2022-10-26T07:02:04;4.73;;;2.40;;
11709;SDS011;5911;51.036;6.972;2022-10-26T07:04:38;4.70;;;2.30;;
11709;SDS011;5911;51.036;6.972;2022-10-26T07:07:07;3.45;;;2.08;;
11709;SDS011;5911;51.036;6.972;2022-10-26T07:09:35;4.40;;;2.30;;
11709;SDS011;5911;51.036;6.972;2022-10-26T07:12:06;4.97;;;2.65;;
11709;SDS011;5911;51.036;6.972;2022-10-26T07:14:34;3.47;;;2.03;;
11709;SDS011;5911;51.036;6.972;2022-10-26T07:17:02;5.37;;;2.33;;
11709;SDS011;5911;51.036;6.972;2022-10-26T07:19:30;6.10;;;2.40;;
11709;SDS011;5911;51.036;6.972;2022-10-26T07:22:01;6.03;;;2.13;;
11709;SDS011;5911;51.036;6.972;2022-10-26T07:24:32;6.05;;;3.45;;
11709;SDS011;5911;51.036;6.972;2022-10-26T07:27:00;5.78;;;2.20;;
11709;SDS011;5911;51.036;6.972;2022-10-26T07:29:29;7.97;;;2.65;;
11709;SDS011;5911;51.036;6.972;2022-10-26T07:32:00;4.03;;;2.10;;
11709;SDS011;5911;51.036;6.972;2022-10-26T07:34:28;2.85;;;1.90;;
11709;SDS011;5911;51.036;6.972;2022-10-26T07:36:57;5.82;;;2.30;;
11709;SDS011;5911;51.036;6.972;2022-10-26T07:39:25;6.30;;;2.30;;
11709;SDS011;5911;51.036;6.972;2022-10-26T07:41:53;6.63;;;2.73;;
11709;SDS011;5911;51.036;6.972;2022-10-26T07:44:23;2.15;;;1.80;;
11709;SDS011;5911;51.036;6.972;2022-10-26T07:46:52;3.83;;;2.42;;
11709;SDS011;5911;51.036;6.972;2022-10-26T07:49:27;3.90;;;2.50;;
11709;SDS011;5911;51.036;6.972;2022-10-26T07:51:55;3.60;;;2.23;;
11709;SDS011;5911;51.036;6.972;2022-10-26T07:54:30;5.23;;;2.70;;
11709;SDS011;5911;51.036;6.972;2022-10-26T07:57:02;6.53;;;2.60;;
11709;SDS011;5911;51.036;6.972;2022-10-26T07:59:32;8.90;;;2.60;;
11709;SDS011;5911;51.036;6.972;2022-10-26T08:02:01;4.35;;;2.65;;
11709;SDS011;5911;51.036;6.972;2022-10-26T08:04:29;4.07;;;2.15;;
11709;SDS011;5911;51.036;6.972;2022-10-26T08:07:02;4.75;;;2.10;;
11709;SDS011;5911;51.036;6.972;2022-10-26T08:09:36;8.25;;;2.30;;
11709;SDS011;5911;51.036;6.972;2022-10-26T08:12:04;3.03;;;2.50;;
11709;SDS011;5911;51.036;6.972;2022-10-26T08:14:33;4.45;;;2.97;;
11709;SDS011;5911;51.036;6.972;2022-10-26T08:17:04;4.30;;;2.85;;
11709;SDS011;5911;51.036;6.972;2022-10-26T08:19:34;3.95;;;2.42;;
11709;SDS011;5911;51.036;6.972;2022-10-26T08:22:05;4.20;;;2.60;;
11709;SDS011;5911;51.036;6.972;2022-10-26T08:24:33;3.63;;;2.23;;
11709;SDS011;5911;51.036;6.972;2022-10-26T08:27:01;8.47;;;2.20;;
11709;SDS011;5911;51.036;6.972;2022-10-26T08:29:30;5.97;;;2.55;;
11709;SDS011;5911;51.036;6.972;2022-10-26T08:31:58;5.25;;;2.60;;
11709;SDS011;5911;51.036;6.972;2022-10-26T08:34:30;4.60;;;2.90;;
11709;SDS011;5911;51.036;6.972;2022-10-26T08:36:59;6.68;;;2.60;;
11709;SDS011;5911;51.036;6.972;2022-10-26T08:39:27;4.10;;;2.20;;
11709;SDS011;5911;51.036;6.972;2022-10-26T08:41:57;5.03;;;2.30;;
11709;SDS011;5911;51.036;6.972;2022-10-26T08:44:34;4.82;;;1.92;;
11709;SDS011;5911;51.036;6.972;2022-10-26T08:47:10;5.03;;;2.45;;
11709;SDS011;5911;51.036;6.972;2022-10-26T08:49:51;3.80;;;2.27;;
11709;SDS011;5911;51.036;6.972;2022-10-26T08:52:26;3.55;;;2.28;;
11709;SDS011;5911;51.036;6.972;2022-10-26T08:55:02;5.72;;;2.38;;
11709;SDS011;5911;51.036;6.972;2022-10-26T08:57:36;4.60;;;2.45;;
11709;SDS011;5911;51.036;6.972;2022-10-26T09:00:11;5.35;;;2.55;;
11709;SDS011;5911;51.036;6.972;2022-10-26T09:02:48;7.57;;;3.25;;
11709;SDS011;5911;51.036;6.972;2022-10-26T09:05:37;5.47;;;2.78;;
11709;SDS011;5911;51.036;6.972;2022-10-26T09:08:18;4.53;;;2.90;;
11709;SDS011;5911;51.036;6.972;2022-10-26T09:11:01;5.80;;;2.60;;
11709;SDS011;5911;51.036;6.972;2022-10-26T09:13:36;5.97;;;2.60;;
11709;SDS011;5911;51.036;6.972;2022-10-26T09:16:13;4.75;;;2.75;;
11709;SDS011;5911;51.036;6.972;2022-10-26T09:18:55;6.22;;;2.90;;
11709;SDS011;5911;51.036;6.972;2022-10-26T09:21:33;4.63;;;2.70;;
11709;SDS011;5911;51.036;6.972;2022-10-26T09:24:12;7.38;;;2.72;;
11709;SDS011;5911;51.036;6.972;2022-10-26T09:26:47;4.32;;;2.50;;
11709;SDS011;5911;51.036;6.972;2022-10-26T09:29:22;6.13;;;3.17;;
11709;SDS011;5911;51.036;6.972;2022-10-26T09:31:53;7.75;;;2.75;;
11709;SDS011;5911;51.036;6.972;2022-10-26T09:34:26;5.00;;;2.57;;
11709;SDS011;5911;51.036;6.972;2022-10-26T09:36:59;6.25;;;2.78;;
11709;SDS011;5911;51.036;6.972;2022-10-26T09:39:34;6.05;;;2.35;;
11709;SDS011;5911;51.036;6.972;2022-10-26T09:42:11;8.23;;;2.40;;
11709;SDS011;5911;51.036;6.972;2022-10-26T09:44:44;10.13;;;2.45;;
11709;SDS011;5911;51.036;6.972;2022-10-26T09:47:23;4.68;;;2.50;;
11709;SDS011;5911;51.036;6.972;2022-10-26T09:50:00;6.13;;;2.38;;
11709;SDS011;5911;51.036;6.972;2022-10-26T09:52:34;4.13;;;2.13;;
11709;SDS011;5911;51.036;6.972;2022-10-26T09:55:02;4.85;;;2.30;;
11709;SDS011;5911;51.036;6.972;2022-10-26T09:57:30;4.30;;;1.90;;
11709;SDS011;5911;51.036;6.972;2022-10-26T09:59:58;4.90;;;2.10;;
11709;SDS011;5911;51.036;6.972;2022-10-26T10:02:33;6.03;;;2.20;;
11709;SDS011;5911;51.036;6.972;2022-10-26T10:05:15;3.42;;;2.50;;
11709;SDS011;5911;51.036;6.972;2022-10-26T10:08:12;7.22;;;2.40;;
11709;SDS011;5911;51.036;6.972;2022-10-26T10:10:55;6.32;;;2.72;;
11709;SDS011;5911;51.036;6.972;2022-10-26T10:13:29;4.32;;;2.22;;
11709;SDS011;5911;51.036;6.972;2022-10-26T10:16:01;6.20;;;2.80;;
11709;SDS011;5911;51.036;6.972;2022-10-26T10:18:30;3.78;;;2.28;;
11709;SDS011;5911;51.036;6.972;2022-10-26T10:20:59;5.82;;;2.75;;
11709;SDS011;5911;51.036;6.972;2022-10-26T10:23:30;6.63;;;2.80;;
11709;SDS011;5911;51.036;6.972;2022-10-26T10:26:03;5.55;;;2.30;;
11709;SDS011;5911;51.036;6.972;2022-10-26T10:28:33;7.35;;;3.00;;
11709;SDS011;5911;51.036;6.972;2022-10-26T10:31:02;5.10;;;2.85;;
11709;SDS011;5911;51.036;6.972;2022-10-26T10:33:35;6.00;;;2.72;;
11709;SDS011;5911;51.036;6.972;2022-10-26T10:36:06;8.27;;;3.05;;
11709;SDS011;5911;51.036;6.972;2022-10-26T10:38:39;6.90;;;2.40;;
11709;SDS011;5911;51.036;6.972;2022-10-26T10:41:18;5.82;;;2.40;;
11709;SDS011;5911;51.036;6.972;2022-10-26T10:43:50;5.45;;;2.88;;
11709;SDS011;5911;51.036;6.972;2022-10-26T10:46:23;4.93;;;2.55;;
11709;SDS011;5911;51.036;6.972;2022-10-26T10:48:54;4.53;;;2.47;;
11709;SDS011;5911;51.036;6.972;2022-10-26T10:51:29;7.75;;;2.55;;
11709;SDS011;5911;51.036;6.972;2022-10-26T10:54:04;4.65;;;2.45;;
11709;SDS011;5911;51.036;6.972;2022-10-26T10:56:43;5.93;;;2.20;;
11709;SDS011;5911;51.036;6.972;2022-10-26T10:59:29;10.55;;;2.33;;
11709;SDS011;5911;51.036;6.972;2022-10-26T11:05:27;4.55;;;2.33;;
11709;SDS011;5911;51.036;6.972;2022-10-26T11:08:04;5.50;;;2.58;;
11709;SDS011;5911;51.036;6.972;2022-10-26T11:10:37;4.55;;;2.08;;
11709;SDS011;5911;51.036;6.972;2022-10-26T11:13:10;4.93;;;2.60;;
11709;SDS011;5911;51.036;6.972;2022-10-26T11:15:44;4.40;;;2.05;;
11709;SDS011;5911;51.036;6.972;2022-10-26T11:18:16;6.30;;;2.67;;
11709;SDS011;5911;51.036;6.972;2022-10-26T11:20:49;4.25;;;2.28;;
11709;SDS011;5911;51.036;6.972;2022-10-26T11:23:32;5.85;;;2.40;;
11709;SDS011;5911;51.036;6.972;2022-10-26T11:26:07;7.85;;;2.55;;
11709;SDS011;5911;51.036;6.972;2022-10-26T11:28:39;6.28;;;2.47;;
11709;SDS011;5911;51.036;6.972;2022-10-26T11:31:15;6.53;;;2.17;;
11709;SDS011;5911;51.036;6.972;2022-10-26T11:33:49;3.53;;;2.08;;
11709;SDS011;5911;51.036;6.972;2022-10-26T11:36:25;5.68;;;1.95;;
11709;SDS011;5911;51.036;6.972;2022-10-26T11:38:58;4.30;;;1.80;;
11709;SDS011;5911;51.036;6.972;2022-10-26T11:41:33;3.78;;;1.65;;
11709;SDS011;5911;51.036;6.972;2022-10-26T11:44:08;4.05;;;1.20;;
11709;SDS011;5911;51.036;6.972;2022-10-26T11:46:42;4.40;;;1.80;;
11709;SDS011;5911;51.036;6.972;2022-10-26T11:49:15;3.42;;;1.63;;
11709;SDS011;5911;51.036;6.972;2022-10-26T11:51:48;2.30;;;1.45;;
11709;SDS011;5911;51.036;6.972;2022-10-26T11:54:23;3.67;;;1.50;;
11709;SDS011;5911;51.036;6.972;2022-10-26T11:56:58;3.47;;;1.58;;
11709;SDS011;5911;51.036;6.972;2022-10-26T11:59:28;5.00;;;1.40;;
11709;SDS011;5911;51.036;6.972;2022-10-26T12:02:00;2.35;;;1.13;;
11709;SDS011;5911;51.036;6.972;2022-10-26T12:04:32;4.88;;;1.33;;
11709;SDS011;5911;51.036;6.972;2022-10-26T12:07:06;2.97;;;1.30;;
11709;SDS011;5911;51.036;6.972;2022-10-26T12:09:37;3.42;;;1.40;;
11709;SDS011;5911;51.036;6.972;2022-10-26T12:12:13;2.10;;;1.23;;
11709;SDS011;5911;51.036;6.972;2022-10-26T12:14:50;2.58;;;1.13;;
11709;SDS011;5911;51.036;6.972;2022-10-26T12:17:24;3.60;;;1.15;;
11709;SDS011;5911;51.036;6.972;2022-10-26T12:19:58;4.82;;;1.40;;
11709;SDS011;5911;51.036;6.972;2022-10-26T12:22:31;3.47;;;1.00;;
11709;SDS011;5911;51.036;6.972;2022-10-26T12:25:05;2.97;;;1.13;;
11709;SDS011;5911;51.036;6.972;2022-10-26T12:27:49;2.05;;;1.10;;
11709;SDS011;5911;51.036;6.972;2022-10-26T12:30:27;4.45;;;1.27;;
11709;SDS011;5911;51.036;6.972;2022-10-26T12:32:57;3.00;;;1.23;;
11709;SDS011;5911;51.036;6.972;2022-10-26T12:35:36;2.80;;;0.90;;
11709;SDS011;5911;51.036;6.972;2022-10-26T12:41:11;5.75;;;1.50;;
11709;SDS011;5911;51.036;6.972;2022-10-26T12:43:46;3.95;;;1.20;;
11709;SDS011;5911;51.036;6.972;2022-10-26T12:52:41;2.85;;;1.33;;
11709;SDS011;5911;51.036;6.972;2022-10-26T12:58:34;1.73;;;0.95;;
11709;SDS011;5911;51.036;6.972;2022-10-26T13:01:23;4.28;;;1.20;;
11709;SDS011;5911;51.036;6.972;2022-10-26T13:04:11;2.88;;;1.42;;
11709;SDS011;5911;51.036;6.972;2022-10-26T13:06:50;2.65;;;1.17;;
11709;SDS011;5911;51.036;6.972;2022-10-26T13:09:37;2.17;;;1.17;;
11709;SDS011;5911;51.036;6.972;2022-10-26T13:12:05;2.72;;;1.25;;
11709;SDS011;5911;51.036;6.972;2022-10-26T13:14:34;2.58;;;1.10;;
11709;SDS011;5911;51.036;6.972;2022-10-26T13:17:04;2.22;;;1.10;;
11709;SDS011;5911;51.036;6.972;2022-10-26T13:19:36;4.85;;;1.00;;
11709;SDS011;5911;51.036;6.972;2022-10-26T13:22:12;2.15;;;1.10;;
11709;SDS011;5911;51.036;6.972;2022-10-26T13:24:46;4.60;;;1.30;;
11709;SDS011;5911;51.036;6.972;2022-10-26T13:27:22;4.40;;;1.23;;
11709;SDS011;5911;51.036;6.972;2022-10-26T13:36:05;3.38;;;1.10;;
11709;SDS011;5911;51.036;6.972;2022-10-26T13:38:43;1.42;;;0.80;;
11709;SDS011;5911;51.036;6.972;2022-10-26T13:41:18;0.80;;;0.80;;
11709;SDS011;5911;51.036;6.972;2022-10-26T13:43:53;2.47;;;0.95;;
11709;SDS011;5911;51.036;6.972;2022-10-26T13:46:22;3.75;;;1.00;;
11709;SDS011;5911;51.036;6.972;2022-10-26T13:49:02;2.45;;;1.42;;
11709;SDS011;5911;51.036;6.972;2022-10-26T13:51:37;0.90;;;0.80;;
11709;SDS011;5911;51.036;6.972;2022-10-26T13:54:17;3.45;;;1.10;;
11709;SDS011;5911;51.036;6.972;2022-10-26T13:56:56;2.53;;;1.23;;
11709;SDS011;5911;51.036;6.972;2022-10-26T13:59:29;1.95;;;0.95;;
11709;SDS011;5911;51.036;6.972;2022-10-26T14:02:06;2.38;;;1.42;;
11709;SDS011;5911;51.036;6.972;2022-10-26T14:04:42;3.38;;;1.20;;
11709;SDS011;5911;51.036;6.972;2022-10-26T14:07:14;1.50;;;0.85;;
11709;SDS011;5911;51.036;6.972;2022-10-26T14:09:51;2.85;;;1.10;;
11709;SDS011;5911;51.036;6.972;2022-10-26T14:12:20;2.13;;;0.90;;
11709;SDS011;5911;51.036;6.972;2022-10-26T14:14:49;2.40;;;1.00;;
11709;SDS011;5911;51.036;6.972;2022-10-26T14:17:19;2.30;;;1.00;;
11709;SDS011;5911;51.036;6.972;2022-10-26T14:19:50;1.67;;;1.00;;
11709;SDS011;5911;51.036;6.972;2022-10-26T14:22:19;3.75;;;1.30;;
11709;SDS011;5911;51.036;6.972;2022-10-26T14:24:50;4.28;;;1.25;;
11709;SDS011;5911;51.036;6.972;2022-10-26T14:27:24;4.35;;;1.00;;
11709;SDS011;5911;51.036;6.972;2022-10-26T14:29:56;2.08;;;0.93;;
11709;SDS011;5911;51.036;6.972;2022-10-26T14:32:48;5.85;;;0.98;;
11709;SDS011;5911;51.036;6.972;2022-10-26T14:38:09;3.97;;;1.27;;
11709;SDS011;5911;51.036;6.972;2022-10-26T14:40:58;4.93;;;1.27;;
11709;SDS011;5911;51.036;6.972;2022-10-26T14:43:30;4.28;;;1.35;;
11709;SDS011;5911;51.036;6.972;2022-10-26T14:45:58;3.65;;;1.30;;
11709;SDS011;5911;51.036;6.972;2022-10-26T14:48:28;2.55;;;1.10;;
11709;SDS011;5911;51.036;6.972;2022-10-26T14:51:01;3.85;;;1.35;;
11709;SDS011;5911;51.036;6.972;2022-10-26T14:53:36;1.98;;;1.20;;
11709;SDS011;5911;51.036;6.972;2022-10-26T14:56:15;3.40;;;1.15;;
11709;SDS011;5911;51.036;6.972;2022-10-26T14:58:48;4.30;;;1.00;;
11709;SDS011;5911;51.036;6.972;2022-10-26T15:01:29;4.88;;;1.75;;
11709;SDS011;5911;51.036;6.972;2022-10-26T15:04:03;2.13;;;1.30;;
11709;SDS011;5911;51.036;6.972;2022-10-26T15:06:38;1.05;;;0.93;;
11709;SDS011;5911;51.036;6.972;2022-10-26T15:09:29;1.63;;;0.98;;
11709;SDS011;5911;51.036;6.972;2022-10-26T15:12:17;3.20;;;1.20;;
11709;SDS011;5911;51.036;6.972;2022-10-26T15:14:47;1.38;;;1.08;;
11709;SDS011;5911;51.036;6.972;2022-10-26T15:17:18;1.40;;;1.30;;
11709;SDS011;5911;51.036;6.972;2022-10-26T15:19:49;3.17;;;1.50;;
11709;SDS011;5911;51.036;6.972;2022-10-26T15:22:22;2.88;;;1.23;;
11709;SDS011;5911;51.036;6.972;2022-10-26T15:24:58;2.63;;;1.10;;
11709;SDS011;5911;51.036;6.972;2022-10-26T15:27:31;1.10;;;1.00;;
11709;SDS011;5911;51.036;6.972;2022-10-26T15:30:17;1.50;;;0.90;;
11709;SDS011;5911;51.036;6.972;2022-10-26T15:32:47;3.08;;;0.95;;
11709;SDS011;5911;51.036;6.972;2022-10-26T15:35:29;2.63;;;0.70;;
11709;SDS011;5911;51.036;6.972;2022-10-26T15:38:09;2.65;;;1.02;;
11709;SDS011;5911;51.036;6.972;2022-10-26T15:40:42;3.22;;;1.27;;
11709;SDS011;5911;51.036;6.972;2022-10-26T15:43:13;2.10;;;1.15;;
11709;SDS011;5911;51.036;6.972;2022-10-26T15:45:44;2.72;;;1.20;;
11709;SDS011;5911;51.036;6.972;2022-10-26T15:48:15;1.63;;;1.02;;
11709;SDS011;5911;51.036;6.972;2022-10-26T15:50:46;1.75;;;1.13;;
11709;SDS011;5911;51.036;6.972;2022-10-26T15:53:19;2.70;;;0.85;;
11709;SDS011;5911;51.036;6.972;2022-10-26T15:55:50;1.90;;;1.23;;
11709;SDS011;5911;51.036;6.972;2022-10-26T15:58:19;2.22;;;1.38;;
11709;SDS011;5911;51.036;6.972;2022-10-26T16:00:51;4.10;;;1.50;;
11709;SDS011;5911;51.036;6.972;2022-10-26T16:03:19;1.30;;;1.10;;